createdAt,value
2019-02-08T00:00:19.549Z,91.8
2019-02-08T00:01:19.602Z,91.8
2019-02-08T00:02:19.546Z,91.9
2019-02-08T00:03:19.514Z,91.7
2019-02-08T00:04:19.866Z,91.8
2019-02-08T00:05:19.795Z,91.9
2019-02-08T00:06:19.702Z,91.8
2019-02-08T00:07:19.628Z,91.7
2019-02-08T00:08:19.589Z,91.5
2019-02-08T00:09:20.413Z,91.7
2019-02-08T00:10:21.094Z,92.1
2019-02-08T00:11:21.042Z,91.7
2019-02-08T00:12:20.952Z,91.8
2019-02-08T00:13:20.952Z,91.8
2019-02-08T00:14:21.356Z,91.8
2019-02-08T00:15:21.301Z,91.7
2019-02-08T00:16:21.281Z,91.7
2019-02-08T00:17:21.278Z,91.6
2019-02-08T00:18:21.222Z,91.7
2019-02-08T00:19:21.159Z,91.7
2019-02-08T00:20:21.088Z,91.8
2019-02-08T00:21:21.107Z,91.8
2019-02-08T00:22:21.040Z,91.9
2019-02-08T00:23:28.041Z,91.9
2019-02-08T00:24:28.466Z,91.7
2019-02-08T00:25:29.432Z,91.9
2019-02-08T00:26:30.239Z,91.8
2019-02-08T00:27:30.200Z,91.8
2019-02-08T00:28:30.143Z,91.8
2019-02-08T00:29:30.063Z,91.7
2019-02-08T00:30:30.126Z,91.6
2019-02-08T00:31:30.086Z,91.5
2019-02-08T00:32:30.053Z,91.5
2019-02-08T00:33:29.994Z,91.5
2019-02-08T00:34:30.390Z,91.5
2019-02-08T00:35:30.329Z,91.4
2019-02-08T00:36:30.264Z,91.4
2019-02-08T00:37:30.188Z,91.3
2019-02-08T00:38:30.111Z,91.1
2019-02-08T00:39:30.049Z,91.1
2019-02-08T00:40:30.913Z,91.2
2019-02-08T00:41:31.646Z,91.1
2019-02-08T00:42:31.563Z,91.1
2019-02-08T00:43:31.481Z,91.1
2019-02-08T00:44:31.906Z,91.1
2019-02-08T00:45:31.837Z,91.1
2019-02-08T00:46:31.755Z,91
2019-02-08T00:47:31.667Z,91.1
2019-02-08T00:48:32.599Z,91
2019-02-08T00:49:33.329Z,90.9
2019-02-08T00:50:33.263Z,90.9
2019-02-08T00:51:33.195Z,90.8
2019-02-08T00:52:33.125Z,90.9
2019-02-08T00:53:34.289Z,90.9
2019-02-08T00:54:34.673Z,90.9
2019-02-08T00:55:34.687Z,90.9
2019-02-08T00:56:34.637Z,90.7
2019-02-08T00:57:34.553Z,90.5
2019-02-08T00:58:34.503Z,90.4
2019-02-08T00:59:34.445Z,90.2
2019-02-08T01:00:34.382Z,89.9
2019-02-08T01:04:35.677Z,88.6
2019-02-08T01:05:35.587Z,88.5
2019-02-08T01:06:35.506Z,88.3
2019-02-08T01:07:35.425Z,88
2019-02-08T01:08:35.348Z,87.8
2019-02-08T01:09:35.295Z,87.8
2019-02-08T01:10:35.231Z,87.4
2019-02-08T01:11:35.135Z,87.4
2019-02-08T01:12:35.054Z,87.4
2019-02-08T01:13:34.963Z,87.4
2019-02-08T01:14:35.357Z,87.9
2019-02-08T01:15:35.304Z,88
2019-02-08T01:16:35.253Z,88
2019-02-08T01:17:35.171Z,87.9
2019-02-08T01:18:36.025Z,87.8
2019-02-08T01:19:36.906Z,87.9
2019-02-08T01:20:36.875Z,88
2019-02-08T01:21:36.779Z,87.8
2019-02-08T01:22:36.693Z,87.7
2019-02-08T01:23:42.019Z,87.7
2019-02-08T01:24:42.363Z,87.4
2019-02-08T01:25:42.276Z,88
2019-02-08T01:26:42.155Z,88.2
2019-02-08T01:27:42.045Z,88.2
2019-02-08T01:28:41.937Z,88.3
2019-02-08T01:29:41.821Z,88.5
2019-02-08T01:30:41.699Z,88.6
2019-02-08T01:31:41.587Z,88.6
2019-02-08T01:32:41.533Z,88.5
2019-02-08T01:33:41.429Z,88.6
2019-02-08T01:34:41.753Z,88.8
2019-02-08T01:35:41.666Z,88.7
2019-02-08T01:36:41.555Z,88.5
2019-02-08T01:37:41.425Z,88.5
2019-02-08T01:38:41.370Z,88.6
2019-02-08T01:39:41.261Z,88.8
2019-02-08T01:40:41.139Z,88.9
2019-02-08T01:41:41.054Z,88.9
2019-02-08T01:42:40.937Z,89
2019-02-08T01:43:40.811Z,89.1
2019-02-08T01:44:41.125Z,89.3
2019-02-08T01:45:41.041Z,89.5
2019-02-08T01:46:40.927Z,89.5
2019-02-08T01:47:40.832Z,89.4
2019-02-08T01:48:40.717Z,89.5
2019-02-08T01:49:40.620Z,89.6
2019-02-08T01:50:40.527Z,89.5
2019-02-08T01:51:40.389Z,89.6
2019-02-08T01:52:40.301Z,90
2019-02-08T01:53:40.183Z,90
2019-02-08T01:54:40.510Z,90
2019-02-08T01:55:40.390Z,90
2019-02-08T01:56:40.285Z,90.1
2019-02-08T01:57:40.190Z,90.2
2019-02-08T01:58:40.078Z,90.3
2019-02-08T01:59:39.956Z,90.3
2019-02-08T02:00:39.873Z,90.4
2019-02-08T02:01:39.757Z,90.4
2019-02-08T02:02:39.661Z,90.4
2019-02-08T02:03:39.544Z,90.4
2019-02-08T02:04:39.830Z,90.3
2019-02-08T02:05:39.725Z,90.4
2019-02-08T02:06:39.604Z,90.4
2019-02-08T02:07:39.474Z,90.5
2019-02-08T02:08:39.379Z,90.5
2019-02-08T02:09:39.293Z,90.5
2019-02-08T02:10:39.187Z,90.4
2019-02-08T02:11:39.058Z,90.4
2019-02-08T02:12:38.950Z,90.5
2019-02-08T02:13:38.854Z,90.6
2019-02-08T02:14:39.155Z,90.6
2019-02-08T02:15:39.044Z,90.3
2019-02-08T02:16:38.934Z,90.3
2019-02-08T02:17:38.826Z,90.4
2019-02-08T02:18:38.718Z,90.4
2019-02-08T02:19:38.646Z,90.3
2019-02-08T02:20:38.520Z,90.4
2019-02-08T02:21:38.450Z,90.3
2019-02-08T02:22:38.334Z,90.2
2019-02-08T02:23:38.226Z,90.2
2019-02-08T02:24:38.552Z,90.3
2019-02-08T02:25:38.440Z,90.3
2019-02-08T02:26:38.332Z,90.2
2019-02-08T02:27:38.196Z,90.2
2019-02-08T02:28:38.088Z,90.2
2019-02-08T02:29:38.000Z,90.3
2019-02-08T02:30:37.914Z,90.2
2019-02-08T02:31:37.826Z,90.3
2019-02-08T02:32:37.714Z,90.5
2019-02-08T02:33:37.623Z,90.5
2019-02-08T02:34:38.037Z,90.5
2019-02-08T02:35:37.978Z,90.5
2019-02-08T02:36:37.939Z,90.5
2019-02-08T02:37:37.828Z,90.5
2019-02-08T02:38:37.732Z,90.6
2019-02-08T02:39:37.617Z,90.6
2019-02-08T02:40:37.521Z,90.4
2019-02-08T02:41:37.441Z,90.5
2019-02-08T02:42:37.319Z,90.4
2019-02-08T02:43:37.256Z,90.3
2019-02-08T02:44:37.590Z,90.2
2019-02-08T02:45:37.516Z,89.9
2019-02-08T02:46:37.476Z,90
2019-02-08T02:47:37.376Z,90
2019-02-08T02:48:37.304Z,90.1
2019-02-08T02:49:37.196Z,89.9
2019-02-08T02:50:37.139Z,90.1
2019-02-08T02:51:37.040Z,89.1
2019-02-08T02:52:37.001Z,89.9
2019-02-08T02:53:36.901Z,89.6
2019-02-08T02:54:37.232Z,89.4
2019-02-08T02:55:37.114Z,89.6
2019-02-08T02:56:37.024Z,89.5
2019-02-08T02:57:36.894Z,89.6
2019-02-08T02:58:36.785Z,89.8
2019-02-08T02:59:36.681Z,89.7
2019-02-08T03:00:36.577Z,89.4
2019-02-08T03:01:36.490Z,89.5
2019-02-08T03:02:36.356Z,89.2
2019-02-08T03:03:36.238Z,89.2
2019-02-08T03:04:36.629Z,89.1
2019-02-08T03:05:36.519Z,89.8
2019-02-08T03:06:36.452Z,89.2
2019-02-08T03:07:36.342Z,89.6
2019-02-08T03:08:36.238Z,89.8
2019-02-08T03:09:36.131Z,89
2019-02-08T03:10:36.015Z,89.8
2019-02-08T03:11:35.922Z,89.6
2019-02-08T03:12:35.862Z,89.8
2019-02-08T03:13:35.798Z,89.9
2019-02-08T03:14:36.113Z,89.6
2019-02-08T03:15:36.021Z,89.5
2019-02-08T03:16:35.920Z,89.8
2019-02-08T03:17:35.846Z,89.3
2019-02-08T03:22:34.652Z,87.5
2019-02-08T03:23:34.551Z,87.3
2019-02-08T03:24:43.130Z,87.1
2019-02-08T03:25:42.995Z,86.9
2019-02-08T03:26:42.881Z,86.6
2019-02-08T03:28:42.536Z,86.7
2019-02-08T03:29:42.418Z,86.7
2019-02-08T03:30:42.401Z,86.6
2019-02-08T03:31:42.510Z,86.7
2019-02-08T03:32:42.456Z,86.6
2019-02-08T03:33:42.420Z,86.8
2019-02-08T03:34:42.731Z,86.7
2019-02-08T03:35:42.631Z,86.5
2019-02-08T03:36:42.510Z,86.1
2019-02-08T03:37:42.390Z,85.9
2019-02-08T03:38:42.290Z,85.6
2019-02-08T03:39:42.181Z,85.4
2019-02-08T03:40:42.094Z,85.4
2019-02-08T03:41:41.988Z,85.5
2019-02-08T03:42:41.877Z,85.4
2019-02-08T03:43:41.794Z,85.9
2019-02-08T03:44:42.156Z,85.3
2019-02-08T03:45:42.073Z,85.2
2019-02-08T03:46:41.990Z,85.1
2019-02-08T03:47:41.919Z,84.9
2019-02-08T03:48:41.818Z,84.9
2019-02-08T03:49:41.706Z,84.8
2019-02-08T03:50:41.610Z,85
2019-02-08T03:51:41.521Z,85.5
2019-02-08T03:52:41.442Z,85.6
2019-02-08T03:53:41.351Z,85.5
2019-02-08T03:54:41.683Z,84.8
2019-02-08T03:55:41.559Z,85.6
2019-02-08T03:56:41.489Z,85.5
2019-02-08T03:57:41.405Z,85.5
2019-02-08T03:58:41.350Z,85.5
2019-02-08T03:59:41.253Z,85.8
2019-02-08T04:00:41.163Z,86.1
2019-02-08T04:01:41.037Z,85.9
2019-02-08T04:02:40.933Z,85.9
2019-02-08T04:03:40.865Z,86.5
2019-02-08T04:04:41.198Z,85.9
2019-02-08T04:05:41.093Z,86
2019-02-08T04:06:40.985Z,86.6
2019-02-08T04:07:40.893Z,86.8
2019-02-08T04:08:40.812Z,86.5
2019-02-08T04:09:40.727Z,86.5
2019-02-08T04:11:40.385Z,86.6
2019-02-08T04:12:40.268Z,86.5
2019-02-08T04:13:40.176Z,86.7
2019-02-08T04:14:40.511Z,86.7
2019-02-08T04:15:40.397Z,87.5
2019-02-08T04:16:40.265Z,88.7
2019-02-08T04:17:40.173Z,88
2019-02-08T04:18:40.163Z,88.1
2019-02-08T04:19:40.089Z,88.3
2019-02-08T04:20:40.051Z,88.9
2019-02-08T04:21:39.926Z,88.7
2019-02-08T04:22:39.813Z,89.3
2019-02-08T04:23:39.723Z,90
2019-02-08T04:24:40.010Z,90.5
2019-02-08T04:25:39.892Z,90.7
2019-02-08T04:26:39.767Z,90.6
2019-02-08T04:27:39.639Z,90.8
2019-02-08T04:28:39.542Z,91.1
2019-02-08T04:29:39.454Z,91.2
2019-02-08T04:30:39.345Z,90.9
2019-02-08T04:31:39.227Z,91.1
2019-02-08T04:32:39.113Z,91.2
2019-02-08T04:33:39.036Z,91.3
2019-02-08T04:34:39.384Z,91.5
2019-02-08T04:35:39.321Z,91.7
2019-02-08T04:36:39.185Z,91.2
2019-02-08T04:37:39.084Z,91.1
2019-02-08T04:38:39.043Z,90.8
2019-02-08T04:40:38.650Z,90.6
2019-02-08T04:42:38.272Z,90.1
2019-02-08T04:43:38.163Z,89.7
2019-02-08T04:44:38.511Z,89.2
2019-02-08T04:45:38.385Z,89.8
2019-02-08T04:46:38.282Z,89.7
2019-02-08T04:47:38.169Z,89.6
2019-02-08T04:48:38.080Z,89.8
2019-02-08T04:49:38.014Z,90
2019-02-08T04:50:37.930Z,90.2
2019-02-08T04:51:37.819Z,90.4
2019-02-08T04:52:37.769Z,90.5
2019-02-08T04:53:37.665Z,90.5
2019-02-08T04:54:39.236Z,90.6
2019-02-08T04:55:39.149Z,90.5
2019-02-08T04:56:39.081Z,90.6
2019-02-08T04:57:40.254Z,90.8
2019-02-08T04:58:40.135Z,90.9
2019-02-08T04:59:40.046Z,91.1
2019-02-08T05:00:39.957Z,91.1
2019-02-08T05:01:39.839Z,91.1
2019-02-08T05:02:39.724Z,91.3
2019-02-08T05:03:39.631Z,91.4
2019-02-08T05:04:39.919Z,91.3
2019-02-08T05:05:39.836Z,91.5
2019-02-08T05:06:39.728Z,91.4
2019-02-08T05:07:39.633Z,91.7
2019-02-08T05:08:39.547Z,91.9
2019-02-08T05:09:39.455Z,92
2019-02-08T05:10:39.381Z,92
2019-02-08T05:11:39.263Z,92.3
2019-02-08T05:12:39.137Z,92.2
2019-02-08T05:13:39.139Z,92.3
2019-02-08T05:14:39.423Z,92.3
2019-02-08T05:15:39.316Z,92.2
2019-02-08T05:16:39.220Z,92.3
2019-02-08T05:17:39.105Z,92.4
2019-02-08T05:18:38.998Z,92.4
2019-02-08T05:19:38.876Z,92.3
2019-02-08T05:20:38.792Z,92.5
2019-02-08T05:21:38.681Z,92.5
2019-02-08T05:22:38.568Z,92.4
2019-02-08T05:23:38.470Z,92.3
2019-02-08T05:24:46.675Z,92.5
2019-02-08T05:25:46.601Z,92.5
2019-02-08T05:26:46.475Z,92.6
2019-02-08T05:27:46.357Z,92.6
2019-02-08T05:28:46.225Z,92.6
2019-02-08T05:29:46.119Z,92.6
2019-02-08T05:30:46.012Z,92.5
2019-02-08T05:31:45.918Z,92.5
2019-02-08T05:32:45.810Z,92.5
2019-02-08T05:33:45.675Z,92.5
2019-02-08T05:34:46.019Z,92.4
2019-02-08T05:35:45.911Z,92.3
2019-02-08T05:36:45.826Z,92.3
2019-02-08T05:37:45.711Z,92.3
2019-02-08T05:38:45.581Z,92.2
2019-02-08T05:39:45.529Z,92.3
2019-02-08T05:40:45.455Z,92.2
2019-02-08T05:41:45.368Z,92.3
2019-02-08T05:42:45.301Z,92.3
2019-02-08T05:43:45.196Z,92.4
2019-02-08T05:44:45.499Z,92.4
2019-02-08T05:45:45.371Z,92.4
2019-02-08T05:46:45.307Z,92.1
2019-02-08T05:54:43.806Z,90.9
2019-02-08T05:55:43.702Z,91.2
2019-02-08T05:56:43.601Z,91.2
2019-02-08T05:57:43.480Z,91.4
2019-02-08T05:58:43.389Z,91.4
2019-02-08T05:59:43.258Z,91.4
2019-02-08T06:00:43.174Z,91.4
2019-02-08T06:01:43.080Z,91.5
2019-02-08T06:02:43.204Z,91.4
2019-02-08T06:03:43.248Z,91.5
2019-02-08T06:04:44.232Z,91.5
2019-02-08T06:05:44.120Z,91.6
2019-02-08T06:06:44.002Z,91.6
2019-02-08T06:07:43.914Z,91.6
2019-02-08T06:08:43.816Z,91.6
2019-02-08T06:09:43.730Z,91.7
2019-02-08T06:10:43.622Z,91.7
2019-02-08T06:11:43.514Z,91.7
2019-02-08T06:12:43.403Z,91.7
2019-02-08T06:13:43.313Z,91.8
2019-02-08T06:14:43.631Z,91.9
2019-02-08T06:15:43.539Z,92
2019-02-08T06:16:43.461Z,92
2019-02-08T06:17:43.363Z,92.1
2019-02-08T06:18:43.331Z,92
2019-02-08T06:19:43.252Z,92
2019-02-08T06:20:43.146Z,91.9
2019-02-08T06:21:43.050Z,92
2019-02-08T06:22:42.969Z,91.9
2019-02-08T06:23:42.905Z,92
2019-02-08T06:24:43.254Z,92
2019-02-08T06:25:43.180Z,92
2019-02-08T06:26:43.076Z,92
2019-02-08T06:27:42.984Z,92.3
2019-02-08T06:28:42.869Z,92
2019-02-08T06:29:42.781Z,92.1
2019-02-08T06:30:42.678Z,92.1
2019-02-08T06:31:42.570Z,92
2019-02-08T06:32:42.471Z,92
2019-02-08T06:33:42.348Z,92
2019-02-08T06:34:42.668Z,92
2019-02-08T06:35:42.576Z,92.1
2019-02-08T06:36:42.456Z,91.8
2019-02-08T06:38:44.986Z,91.5
2019-02-08T06:44:44.018Z,90.8
2019-02-08T06:45:43.920Z,91.1
2019-02-08T06:46:43.819Z,91.2
2019-02-08T06:47:43.761Z,91.4
2019-02-08T06:48:43.641Z,91.5
2019-02-08T06:49:43.542Z,91.5
2019-02-08T06:50:43.424Z,91.5
2019-02-08T06:51:43.300Z,91.5
2019-02-08T06:52:43.173Z,91.5
2019-02-08T06:53:43.050Z,91.6
2019-02-08T06:54:43.397Z,91.6
2019-02-08T06:55:43.274Z,91.7
2019-02-08T06:56:43.154Z,91.7
2019-02-08T06:57:43.037Z,91.7
2019-02-08T06:58:42.928Z,91.7
2019-02-08T06:59:42.816Z,91.8
2019-02-08T07:00:42.779Z,91.8
2019-02-08T07:01:42.696Z,91.8
2019-02-08T07:02:42.565Z,91.8
2019-02-08T07:03:42.462Z,91.9
2019-02-08T07:04:42.790Z,91.9
2019-02-08T07:05:42.676Z,91.9
2019-02-08T07:06:42.582Z,91.9
2019-02-08T07:07:42.457Z,92
2019-02-08T07:08:42.331Z,92
2019-02-08T07:09:42.232Z,92
2019-02-08T07:10:42.222Z,92
2019-02-08T07:11:42.148Z,91.9
2019-02-08T07:12:42.031Z,92
2019-02-08T07:13:41.935Z,92
2019-02-08T07:14:42.261Z,92
2019-02-08T07:15:42.200Z,91.9
2019-02-08T07:16:42.081Z,92
2019-02-08T07:17:41.983Z,91.9
2019-02-08T07:18:41.874Z,91.8
2019-02-08T07:19:41.795Z,91.7
2019-02-08T07:20:41.683Z,91.6
2019-02-08T07:21:41.563Z,91.6
2019-02-08T07:22:41.452Z,91.4
2019-02-08T07:23:41.329Z,91.2
2019-02-08T07:24:41.705Z,91.2
2019-02-08T07:25:41.651Z,91.1
2019-02-08T07:26:41.554Z,91.1
2019-02-08T07:27:41.444Z,91
2019-02-08T07:28:41.332Z,90.7
2019-02-08T07:29:41.225Z,90.9
2019-02-08T07:30:41.170Z,90.7
2019-02-08T07:31:41.062Z,90.7
2019-02-08T07:32:40.953Z,90.7
2019-02-08T07:33:40.855Z,90.5
2019-02-08T07:34:41.171Z,90.5
2019-02-08T07:35:41.081Z,90.3
2019-02-08T07:36:40.977Z,90.3
2019-02-08T07:37:40.872Z,90.3
2019-02-08T07:38:40.761Z,90.1
2019-02-08T07:39:40.648Z,89.8
2019-02-08T07:40:40.537Z,89.8
2019-02-08T07:41:40.445Z,88.8
2019-02-08T07:42:40.335Z,89
2019-02-08T07:43:40.194Z,88.8
2019-02-08T07:44:40.499Z,88.8
2019-02-08T07:45:40.399Z,88.5
2019-02-08T07:46:40.300Z,88.4
2019-02-08T07:47:40.183Z,87.9
2019-02-08T07:48:40.082Z,87.1
2019-02-08T07:49:39.977Z,87
2019-02-08T07:50:39.881Z,86.8
2019-02-08T07:51:39.768Z,86.8
2019-02-08T07:52:39.673Z,86.2
2019-02-08T07:53:39.547Z,86.9
2019-02-08T07:54:39.867Z,86.3
2019-02-08T07:55:39.759Z,85.6
2019-02-08T07:56:39.653Z,85.8
2019-02-08T07:57:39.567Z,85.5
2019-02-08T07:58:39.465Z,84.5
2019-02-08T07:59:39.372Z,84.9
2019-02-08T08:00:39.250Z,84.8
2019-02-08T08:01:39.180Z,84.4
2019-02-08T08:02:39.068Z,83.5
2019-02-08T08:03:38.953Z,83.7
2019-02-08T08:04:39.269Z,83
2019-02-08T08:05:39.152Z,81.9
2019-02-08T08:06:39.058Z,82
2019-02-08T08:07:38.941Z,82.3
2019-02-08T08:08:38.865Z,81.8
2019-02-08T08:09:38.789Z,82.1
2019-02-08T08:10:38.675Z,82.1
2019-02-08T08:11:38.587Z,81.2
2019-02-08T08:12:38.473Z,81.6
2019-02-08T08:13:38.355Z,80.9
2019-02-08T08:14:38.660Z,81.6
2019-02-08T08:15:38.547Z,81.9
2019-02-08T08:16:38.439Z,80.9
2019-02-08T08:17:38.347Z,80.3
2019-02-08T08:18:38.227Z,80.4
2019-02-08T08:19:38.138Z,80.3
2019-02-08T08:20:38.031Z,80.6
2019-02-08T08:21:37.916Z,79.8
2019-02-08T08:22:37.833Z,80.8
2019-02-08T08:23:37.740Z,80.5
2019-02-08T08:24:38.058Z,80.5
2019-02-08T08:25:37.949Z,79.9
2019-02-08T08:26:37.840Z,80.1
2019-02-08T08:27:37.750Z,79
2019-02-08T08:28:37.666Z,80.3
2019-02-08T08:29:37.546Z,80.3
2019-02-08T08:30:37.442Z,80.4
2019-02-08T08:31:37.375Z,79.2
2019-02-08T08:32:37.500Z,79.3
2019-02-08T08:33:37.417Z,80.2
2019-02-08T08:34:37.775Z,78.6
2019-02-08T08:35:37.679Z,79.1
2019-02-08T08:36:37.581Z,78.6
2019-02-08T08:37:37.466Z,79.1
2019-02-08T08:38:37.355Z,79.4
2019-02-08T08:39:37.248Z,78.4
2019-02-08T08:40:37.148Z,77.9
2019-02-08T08:41:37.062Z,79.3
2019-02-08T08:42:36.961Z,78.6
2019-02-08T08:43:36.852Z,78.2
2019-02-08T08:44:37.286Z,78
2019-02-08T08:45:37.194Z,78.2
2019-02-08T08:46:37.069Z,77.5
2019-02-08T08:47:36.944Z,78.1
2019-02-08T08:48:36.845Z,78.6
2019-02-08T08:49:36.735Z,78
2019-02-08T08:50:36.643Z,78.1
2019-02-08T08:51:36.529Z,78.2
2019-02-08T08:52:36.420Z,78.8
2019-02-08T08:53:36.346Z,76.7
2019-02-08T08:54:36.688Z,77.8
2019-02-08T08:55:43.026Z,77.8
2019-02-08T08:56:42.924Z,78.3
2019-02-08T08:57:42.824Z,77
2019-02-08T08:58:42.712Z,76.1
2019-02-08T08:59:42.606Z,76.4
2019-02-08T09:00:42.519Z,76.6
2019-02-08T09:01:42.406Z,76.3
2019-02-08T09:02:42.308Z,76.1
2019-02-08T09:03:42.208Z,76.2
2019-02-08T09:04:42.684Z,76.5
2019-02-08T09:05:42.651Z,76.5
2019-02-08T09:06:42.584Z,76.3
2019-02-08T09:07:42.548Z,76.6
2019-02-08T09:08:42.448Z,77.6
2019-02-08T09:09:42.352Z,75.9
2019-02-08T09:10:42.256Z,76.9
2019-02-08T09:11:42.182Z,76.4
2019-02-08T09:12:42.093Z,76.2
2019-02-08T09:13:41.994Z,76.1
2019-02-08T09:14:42.319Z,75.6
2019-02-08T09:15:42.208Z,76.2
2019-02-08T09:16:42.122Z,76.2
2019-02-08T09:17:42.028Z,76
2019-02-08T09:18:41.942Z,76.4
2019-02-08T09:19:41.834Z,76.1
2019-02-08T09:20:41.728Z,76.5
2019-02-08T09:21:41.624Z,76.6
2019-02-08T09:22:41.590Z,76.5
2019-02-08T09:23:41.469Z,75.8
2019-02-08T09:24:41.832Z,76.2
2019-02-08T09:25:41.718Z,75
2019-02-08T09:26:49.456Z,75
2019-02-08T09:27:49.399Z,76.3
2019-02-08T09:28:49.282Z,76.6
2019-02-08T09:29:49.156Z,75.8
2019-02-08T09:30:49.038Z,76.3
2019-02-08T09:31:48.926Z,75.3
2019-02-08T09:32:48.810Z,75.5
2019-02-08T09:33:48.720Z,75.4
2019-02-08T09:34:49.065Z,75.7
2019-02-08T09:35:48.938Z,75.9
2019-02-08T09:36:48.878Z,75.9
2019-02-08T09:37:48.766Z,76.4
2019-02-08T09:38:48.692Z,75.2
2019-02-08T09:39:48.586Z,76.1
2019-02-08T09:40:48.468Z,74.4
2019-02-08T09:41:48.352Z,74.1
2019-02-08T09:42:48.275Z,74.2
2019-02-08T09:43:48.153Z,74.6
2019-02-08T09:44:48.478Z,74.5
2019-02-08T09:45:48.392Z,75.5
2019-02-08T09:46:48.282Z,74.8
2019-02-08T09:47:48.151Z,74.3
2019-02-08T09:48:48.044Z,73.6
2019-02-08T09:49:47.946Z,74.4
2019-02-08T09:50:47.828Z,75.2
2019-02-08T09:51:48.202Z,75.1
2019-02-08T09:52:48.118Z,74.7
2019-02-08T09:53:47.999Z,74.5
2019-02-08T09:54:48.399Z,74.4
2019-02-08T09:55:48.293Z,74.5
2019-02-08T09:56:48.173Z,74.6
2019-02-08T09:57:48.058Z,74.7
2019-02-08T09:58:47.956Z,73.6
2019-02-08T09:59:47.854Z,73.2
2019-02-08T10:00:47.740Z,74.1
2019-02-08T10:01:47.628Z,75
2019-02-08T10:02:47.531Z,74
2019-02-08T10:03:47.480Z,73.9
2019-02-08T10:04:47.838Z,74.6
2019-02-08T10:05:47.730Z,75.2
2019-02-08T10:06:47.617Z,76.1
2019-02-08T10:07:47.515Z,76.5
2019-02-08T10:08:47.398Z,76.9
2019-02-08T10:09:47.278Z,77.6
2019-02-08T10:10:47.187Z,76.9
2019-02-08T10:11:47.064Z,74.2
2019-02-08T10:12:46.957Z,74.6
2019-02-08T10:13:46.849Z,74
2019-02-08T10:14:47.160Z,74.1
2019-02-08T10:15:47.064Z,72.7
2019-02-08T10:16:46.954Z,74.7
2019-02-08T10:17:46.848Z,73.6
2019-02-08T10:18:46.726Z,73.6
2019-02-08T10:19:46.618Z,73
2019-02-08T10:20:46.501Z,72
2019-02-08T10:21:46.454Z,73.3
2019-02-08T10:22:46.350Z,72.2
2019-02-08T10:23:46.248Z,72.7
2019-02-08T10:24:46.575Z,73.6
2019-02-08T10:25:46.463Z,73
2019-02-08T10:26:46.365Z,73.7
2019-02-08T10:27:46.275Z,72.1
2019-02-08T10:28:46.173Z,72.2
2019-02-08T10:29:46.052Z,72.1
2019-02-08T10:30:45.934Z,73.7
2019-02-08T10:31:45.853Z,73.4
2019-02-08T10:32:45.752Z,73.5
2019-02-08T10:33:45.642Z,72.2
2019-02-08T10:34:48.151Z,71.2
2019-02-08T10:35:49.172Z,70.3
2019-02-08T10:36:49.094Z,69.5
2019-02-08T10:37:48.987Z,70.5
2019-02-08T10:38:48.884Z,70.4
2019-02-08T10:39:48.761Z,70.2
2019-02-08T10:40:48.651Z,72.1
2019-02-08T10:41:48.544Z,71.2
2019-02-08T10:42:48.445Z,73.4
2019-02-08T10:43:50.370Z,72.9
2019-02-08T10:44:52.655Z,73.1
2019-02-08T10:45:52.568Z,72.7
2019-02-08T10:46:52.487Z,72.7
2019-02-08T10:47:52.400Z,71.4
2019-02-08T10:48:52.292Z,70.7
2019-02-08T10:49:52.171Z,71.3
2019-02-08T10:50:52.085Z,70.4
2019-02-08T10:51:51.977Z,71.3
2019-02-08T10:52:51.885Z,70.6
2019-02-08T10:53:54.493Z,71
2019-02-08T10:54:57.943Z,70.4
2019-02-08T10:55:57.811Z,71.8
2019-02-08T10:56:57.693Z,71.2
2019-02-08T10:57:57.677Z,70.6
2019-02-08T10:58:57.583Z,70.5
2019-02-08T10:59:57.479Z,70.8
2019-02-08T11:00:57.361Z,70.8
2019-02-08T11:01:57.247Z,70.7
2019-02-08T11:02:57.129Z,69.4
2019-02-08T11:03:57.024Z,69.8
2019-02-08T11:04:57.329Z,70.4
2019-02-08T11:05:57.215Z,69
2019-02-08T11:06:57.111Z,71.4
2019-02-08T11:07:57.029Z,71.1
2019-02-08T11:08:56.989Z,71.7
2019-02-08T11:09:56.875Z,71.4
2019-02-08T11:10:56.763Z,71.4
2019-02-08T11:11:56.670Z,71.8
2019-02-08T11:12:56.563Z,71.7
2019-02-08T11:13:56.474Z,70.8
2019-02-08T11:14:56.773Z,69.5
2019-02-08T11:15:56.645Z,70.1
2019-02-08T11:16:56.541Z,70.7
2019-02-08T11:17:56.425Z,69.7
2019-02-08T11:18:56.339Z,69
2019-02-08T11:19:56.233Z,69.5
2019-02-08T11:20:56.135Z,69
2019-02-08T11:21:56.053Z,69
2019-02-08T11:22:55.949Z,68.7
2019-02-08T11:23:55.845Z,69.2
2019-02-08T11:24:56.171Z,69.4
2019-02-08T11:25:56.049Z,68.6
2019-02-08T11:26:55.965Z,66.1
2019-02-08T11:27:55.854Z,64
2019-02-08T11:28:55.735Z,64.9
2019-02-08T11:29:55.639Z,65.5
2019-02-08T11:30:55.518Z,64.8
2019-02-08T11:31:55.408Z,64
2019-02-08T11:32:55.307Z,64.4
2019-02-08T11:33:55.200Z,63
2019-02-08T11:34:55.539Z,62
2019-02-08T11:35:55.418Z,61.7
2019-02-08T11:36:55.307Z,63.6
2019-02-08T11:37:55.205Z,62.6
2019-02-08T11:38:55.093Z,62
2019-02-08T11:39:55.090Z,63.2
2019-02-08T11:40:54.987Z,62.1
2019-02-08T11:41:54.904Z,61.4
2019-02-08T11:42:54.783Z,61.8
2019-02-08T11:43:54.672Z,62.6
2019-02-08T11:44:54.981Z,62.6
2019-02-08T11:45:54.870Z,62.2
2019-02-08T11:46:54.769Z,60.9
2019-02-08T11:47:54.773Z,60.2
2019-02-08T11:48:54.718Z,61.8
2019-02-08T11:49:54.619Z,61.8
2019-02-08T11:50:54.516Z,60.5
2019-02-08T11:51:54.403Z,62.2
2019-02-08T11:52:54.277Z,61.8
2019-02-08T11:53:54.163Z,62.1
2019-02-08T11:54:54.500Z,62
2019-02-08T11:55:54.372Z,62.4
2019-02-08T11:56:54.312Z,62.8
2019-02-08T11:57:54.199Z,63.2
2019-02-08T11:58:54.084Z,62.2
2019-02-08T11:59:53.975Z,62.4
2019-02-08T12:00:53.884Z,62.5
2019-02-08T12:01:53.772Z,63.2
2019-02-08T12:02:53.649Z,63.9
2019-02-08T12:03:53.528Z,64.1
2019-02-08T12:04:53.844Z,63.6
2019-02-08T12:05:53.739Z,64
2019-02-08T12:06:53.630Z,63.6
2019-02-08T12:07:53.536Z,63.6
2019-02-08T12:08:53.433Z,63.5
2019-02-08T12:09:53.345Z,62.7
2019-02-08T12:10:53.227Z,62.7
2019-02-08T12:11:53.126Z,62.1
2019-02-08T12:12:53.012Z,62.4
2019-02-08T12:13:52.973Z,61.4
2019-02-08T12:14:53.350Z,61
2019-02-08T12:15:53.256Z,62.8
2019-02-08T12:16:53.148Z,61.7
2019-02-08T12:17:53.066Z,62.1
2019-02-08T12:18:52.955Z,59.5
2019-02-08T12:19:52.852Z,60.3
2019-02-08T12:20:52.726Z,61
2019-02-08T12:21:52.605Z,60.4
2019-02-08T12:22:52.495Z,62.3
2019-02-08T12:23:52.390Z,61.3
2019-02-08T12:24:53.288Z,61.4
2019-02-08T12:25:53.174Z,61
2019-02-08T12:26:53.062Z,61.4
2019-02-08T12:27:52.962Z,61.8
2019-02-08T12:28:52.876Z,62.2
2019-02-08T12:29:52.766Z,63.1
2019-02-08T12:30:52.668Z,62.8
2019-02-08T12:31:52.567Z,61.8
2019-02-08T12:32:52.495Z,62.2
2019-02-08T12:33:52.398Z,63.4
2019-02-08T12:34:52.704Z,61.8
2019-02-08T12:35:52.599Z,61.6
2019-02-08T12:36:52.504Z,61.6
2019-02-08T12:37:52.402Z,61.1
2019-02-08T12:38:52.333Z,60.9
2019-02-08T12:39:52.234Z,60.2
2019-02-08T12:40:52.124Z,60.3
2019-02-08T12:41:52.023Z,59.7
2019-02-08T12:42:51.918Z,60.6
2019-02-08T12:43:51.810Z,59.6
2019-02-08T12:44:52.168Z,60.3
2019-02-08T12:45:52.094Z,60.2
2019-02-08T12:46:52.000Z,59.9
2019-02-08T12:47:51.902Z,60.6
2019-02-08T12:48:51.793Z,61.1
2019-02-08T12:49:51.686Z,61.5
2019-02-08T12:50:51.583Z,61.3
2019-02-08T12:51:51.468Z,59.8
2019-02-08T12:52:51.366Z,60.3
2019-02-08T12:53:51.273Z,61.1
2019-02-08T12:54:51.661Z,60.8
2019-02-08T12:55:51.566Z,60.9
2019-02-08T12:56:51.476Z,60.8
2019-02-08T12:57:51.376Z,61
2019-02-08T12:58:51.272Z,61.5
2019-02-08T12:59:51.183Z,62.1
2019-02-08T13:00:51.120Z,63
2019-02-08T13:01:51.031Z,63
2019-02-08T13:02:50.934Z,62
2019-02-08T13:03:50.826Z,62.3
2019-02-08T13:04:51.123Z,62.1
2019-02-08T13:05:51.008Z,61.4
2019-02-08T13:06:50.904Z,62.4
2019-02-08T13:07:50.797Z,62.7
2019-02-08T13:08:50.696Z,61.4
2019-02-08T13:09:50.662Z,61.8
2019-02-08T13:10:50.549Z,62.4
2019-02-08T13:11:50.435Z,62.4
2019-02-08T13:12:50.316Z,61.8
2019-02-08T13:13:50.215Z,61
2019-02-08T13:14:50.549Z,61.6
2019-02-08T13:15:50.465Z,60.5
2019-02-08T13:16:50.366Z,61.1
2019-02-08T13:17:50.284Z,59.6
2019-02-08T13:18:52.945Z,60.2
2019-02-08T13:19:52.831Z,59.6
2019-02-08T13:20:52.730Z,60.1
2019-02-08T13:21:52.626Z,60.3
2019-02-08T13:22:52.519Z,61.2
2019-02-08T13:23:52.427Z,60.3
2019-02-08T13:24:52.783Z,60.9
2019-02-08T13:25:52.688Z,61.4
2019-02-08T13:26:53.777Z,61.6
2019-02-08T13:27:53.686Z,60.9
2019-02-08T13:28:54.511Z,61.6
2019-02-08T13:29:54.405Z,61.6
2019-02-08T13:30:54.323Z,62.1
2019-02-08T13:31:54.218Z,62.5
2019-02-08T13:32:54.115Z,60.5
2019-02-08T13:33:54.015Z,60.3
2019-02-08T13:34:54.325Z,60.5
2019-02-08T13:35:54.216Z,60
2019-02-08T13:36:54.150Z,60.3
2019-02-08T13:37:54.056Z,60.3
2019-02-08T13:38:53.953Z,61
2019-02-08T13:39:53.839Z,61.8
2019-02-08T13:40:53.726Z,61.9
2019-02-08T13:41:53.631Z,62.2
2019-02-08T13:42:53.531Z,62.6
2019-02-08T13:43:53.453Z,62.9
2019-02-08T13:44:53.759Z,62.5
2019-02-08T13:45:53.661Z,63.3
2019-02-08T13:46:53.565Z,63.3
2019-02-08T13:47:53.447Z,63.2
2019-02-08T13:48:53.337Z,62.7